createdAt,value
2023-01-29T00:02:59.344Z,99.90
2023-01-29T00:08:05.781Z,99.90
2023-01-29T00:13:12.308Z,99.90
2023-01-29T00:18:19.115Z,99.90
2023-01-29T00:23:25.980Z,99.90
2023-01-29T00:28:32.338Z,99.90
2023-01-29T00:33:39.570Z,99.90
2023-01-29T00:38:56.313Z,99.90
2023-01-29T00:44:22.058Z,99.90
2023-01-29T00:49:28.614Z,99.90
2023-01-29T00:54:35.574Z,99.90
2023-01-29T00:59:41.861Z,99.90
2023-01-29T01:04:48.594Z,99.90
2023-01-29T01:10:12.208Z,99.90
2023-01-29T01:15:18.806Z,99.90
2023-01-29T01:20:26.080Z,99.90
2023-01-29T01:25:32.593Z,99.90
2023-01-29T01:31:43.685Z,99.90
2023-01-29T01:36:50.139Z,99.90
2023-01-29T01:41:56.153Z,99.90
2023-01-29T01:47:05.397Z,99.90
2023-01-29T01:52:12.360Z,99.90
2023-01-29T01:57:26.787Z,99.90
2023-01-29T02:02:54.933Z,99.90
2023-01-29T02:08:20.346Z,95.50
2023-01-29T02:13:27.197Z,93.90
2023-01-29T02:18:39.847Z,95.10
2023-01-29T02:23:55.540Z,90.80
2023-01-29T02:29:29.077Z,88.90
2023-01-29T02:35:08.962Z,84.60
2023-01-29T02:40:38.546Z,76.90
2023-01-29T02:46:12.075Z,78.70
2023-01-29T02:51:35.206Z,70.70
2023-01-29T02:57:25.371Z,72.80
2023-01-29T03:02:47.870Z,68.20
2023-01-29T03:08:00.579Z,70.10
2023-01-29T03:13:39.454Z,74.10
2023-01-29T03:18:53.801Z,68.20
2023-01-29T03:24:20.408Z,64.40
2023-01-29T03:29:47.548Z,65.00
2023-01-29T03:35:02.376Z,68.00
2023-01-29T03:40:16.163Z,47.30
2023-01-29T03:45:52.926Z,64.20
2023-01-29T03:51:16.472Z,68.40
2023-01-29T03:56:44.513Z,63.70
2023-01-29T04:02:12.170Z,62.80
2023-01-29T04:07:26.447Z,64.00
2023-01-29T04:13:25.405Z,64.20
2023-01-29T04:18:35.332Z,62.30
2023-01-29T04:23:51.024Z,62.10
2023-01-29T04:29:21.636Z,66.50
2023-01-29T04:35:03.764Z,60.60
2023-01-29T04:40:42.468Z,59.20
2023-01-29T04:46:12.157Z,59.90
2023-01-29T04:51:57.731Z,55.30
2023-01-29T04:57:31.354Z,50.60
2023-01-29T05:02:46.043Z,46.70
2023-01-29T05:08:07.603Z,49.20
2023-01-29T05:13:24.426Z,50.60
2023-01-29T05:29:52.610Z,48.20
2023-01-29T05:35:10.062Z,47.90
2023-01-29T05:40:22.225Z,44.20
2023-01-29T05:45:40.237Z,48.20
2023-01-29T05:51:02.670Z,49.00
2023-01-29T05:56:14.238Z,48.90
2023-01-29T06:01:26.850Z,44.40
2023-01-29T06:07:00.786Z,47.10
2023-01-29T06:12:14.993Z,44.30
2023-01-29T06:17:55.463Z,43.10
2023-01-29T06:23:10.497Z,47.00
2023-01-29T06:28:27.590Z,46.10
2023-01-29T06:33:59.877Z,46.60
2023-01-29T06:39:17.043Z,40.30
2023-01-29T06:49:55.199Z,43.70
2023-01-29T06:55:18.957Z,42.30
2023-01-29T07:00:42.664Z,38.60
2023-01-29T07:06:02.790Z,42.00
2023-01-29T07:16:58.845Z,42.60
2023-01-29T07:22:20.402Z,41.60
2023-01-29T07:27:32.590Z,42.30
2023-01-29T07:32:42.260Z,42.30
2023-01-29T07:38:01.309Z,39.30
2023-01-29T07:43:14.903Z,36.20
2023-01-29T07:48:43.778Z,40.60
2023-01-29T07:53:57.839Z,39.10
2023-01-29T07:59:29.076Z,40.50
2023-01-29T08:04:53.965Z,40.80
2023-01-29T08:10:07.778Z,42.50
2023-01-29T08:15:21.892Z,47.10
2023-01-29T08:20:32.235Z,48.30
2023-01-29T08:25:46.123Z,48.50
2023-01-29T08:30:58.702Z,46.00
2023-01-29T08:36:17.228Z,49.20
2023-01-29T08:47:06.491Z,49.00
2023-01-29T08:52:19.180Z,49.30
2023-01-29T08:57:34.688Z,50.80
2023-01-29T09:02:45.224Z,50.80
2023-01-29T09:07:59.901Z,51.80
2023-01-29T09:13:14.349Z,49.70
2023-01-29T09:18:26.436Z,52.80
2023-01-29T09:23:44.328Z,48.70
2023-01-29T09:29:05.027Z,51.60
2023-01-29T09:34:16.049Z,53.40
2023-01-29T09:39:26.021Z,54.20
2023-01-29T09:44:50.800Z,54.90
2023-01-29T09:50:08.985Z,55.80
2023-01-29T09:55:41.079Z,56.00
2023-01-29T10:01:07.810Z,57.30
2023-01-29T10:06:31.099Z,53.60
2023-01-29T10:12:18.863Z,59.70
2023-01-29T10:17:54.531Z,60.70
2023-01-29T10:23:34.644Z,61.60
2023-01-29T10:29:15.978Z,62.80
2023-01-29T10:34:47.950Z,63.60
2023-01-29T10:39:56.384Z,64.30
2023-01-29T10:45:33.013Z,65.60
2023-01-29T10:50:49.937Z,65.90
2023-01-29T11:02:05.680Z,66.80
2023-01-29T11:07:22.907Z,67.00
2023-01-29T11:12:35.351Z,67.30
2023-01-29T11:17:43.679Z,68.90
2023-01-29T11:22:59.295Z,69.70
2023-01-29T11:28:14.272Z,69.90
2023-01-29T11:33:27.170Z,70.10
2023-01-29T11:44:56.601Z,71.40
2023-01-29T11:50:09.321Z,72.20
2023-01-29T11:55:49.727Z,73.50
2023-01-29T12:12:43.281Z,76.80
2023-01-29T12:18:16.439Z,75.50
2023-01-29T12:31:05.199Z,74.10
2023-01-29T12:36:39.185Z,75.40
2023-01-29T12:42:47.027Z,76.20
2023-01-29T12:48:26.475Z,77.80
2023-01-29T12:53:46.307Z,79.80
2023-01-29T12:59:05.146Z,80.50
2023-01-29T13:04:43.436Z,81.30
2023-01-29T13:10:10.155Z,86.00
2023-01-29T13:15:34.446Z,91.10
2023-01-29T13:21:05.482Z,92.40
2023-01-29T13:26:31.981Z,91.80
2023-01-29T13:31:51.394Z,96.00
2023-01-29T13:37:12.997Z,98.40
2023-01-29T13:42:44.402Z,99.90
2023-01-29T13:48:16.066Z,99.70
2023-01-29T13:54:03.650Z,99.90
2023-01-29T13:59:43.465Z,99.90
2023-01-29T14:05:22.185Z,99.90
2023-01-29T14:10:40.026Z,99.90
2023-01-29T14:16:13.683Z,99.90
2023-01-29T14:22:08.386Z,99.90
2023-01-29T14:27:46.024Z,94.30
2023-01-29T14:33:09.446Z,99.90
2023-01-29T14:38:28.136Z,99.90
2023-01-29T14:43:51.740Z,99.90
2023-01-29T14:49:05.757Z,99.90
2023-01-29T14:54:41.016Z,99.90
2023-01-29T15:00:08.543Z,99.90
2023-01-29T15:05:41.889Z,99.90
2023-01-29T15:11:15.002Z,99.90
2023-01-29T15:17:20.427Z,99.90
2023-01-29T15:22:37.879Z,99.90
2023-01-29T15:27:54.415Z,99.20
2023-01-29T15:33:12.070Z,99.90
2023-01-29T15:38:34.094Z,99.90
2023-01-29T15:43:49.442Z,99.90
2023-01-29T15:49:00.251Z,99.90
2023-01-29T15:54:16.393Z,99.90
2023-01-29T15:59:26.769Z,99.90
2023-01-29T16:04:33.690Z,99.90
2023-01-29T16:09:47.266Z,99.90
2023-01-29T16:14:55.495Z,99.90
2023-01-29T16:20:08.376Z,99.90
2023-01-29T16:25:17.627Z,99.90
2023-01-29T16:30:29.531Z,99.90
2023-01-29T16:35:37.691Z,99.90
2023-01-29T16:41:07.604Z,99.90
2023-01-29T16:46:35.241Z,99.90
2023-01-29T16:51:41.992Z,99.90
2023-01-29T16:56:49.568Z,99.90
2023-01-29T17:02:17.840Z,99.90
2023-01-29T17:07:23.935Z,99.90
2023-01-29T17:12:31.683Z,99.90
2023-01-29T17:17:38.650Z,99.90
2023-01-29T17:22:44.374Z,99.90
2023-01-29T17:27:53.262Z,99.90
2023-01-29T17:32:59.582Z,99.90
2023-01-29T17:38:09.404Z,99.90
2023-01-29T17:43:19.822Z,99.90
2023-01-29T17:48:29.377Z,99.90
2023-01-29T17:53:47.680Z,99.90
2023-01-29T17:58:59.815Z,99.90
2023-01-29T18:04:09.128Z,99.90
2023-01-29T18:09:21.737Z,99.90
2023-01-29T18:14:27.420Z,99.90
2023-01-29T18:19:33.877Z,99.90
2023-01-29T18:24:38.827Z,99.90
2023-01-29T18:29:44.383Z,99.90
2023-01-29T18:34:50.175Z,99.90
2023-01-29T18:39:56.396Z,99.90
2023-01-29T18:45:02.388Z,99.90
2023-01-29T18:50:09.451Z,99.90
2023-01-29T18:55:15.609Z,99.90
2023-01-29T19:00:21.394Z,99.90
2023-01-29T19:05:27.293Z,99.90
2023-01-29T19:10:33.289Z,99.90
2023-01-29T19:15:38.891Z,99.90
2023-01-29T19:20:44.547Z,99.90
2023-01-29T19:25:50.522Z,99.90
2023-01-29T19:30:59.674Z,99.90
2023-01-29T19:36:06.481Z,99.90
2023-01-29T19:41:11.974Z,99.90
2023-01-29T19:46:17.828Z,99.90
2023-01-29T19:51:24.743Z,99.90
2023-01-29T19:56:30.296Z,99.90
2023-01-29T20:01:36.340Z,99.90
2023-01-29T20:06:42.299Z,99.90
2023-01-29T20:11:47.756Z,99.90
2023-01-29T20:16:53.914Z,99.90
2023-01-29T20:22:03.589Z,99.90
2023-01-29T20:27:09.817Z,99.90
2023-01-29T20:32:16.085Z,99.90
2023-01-29T20:37:21.488Z,99.90
2023-01-29T20:42:27.663Z,99.90
2023-01-29T20:47:33.354Z,99.90
2023-01-29T20:52:40.185Z,99.90
2023-01-29T20:57:46.118Z,99.90
2023-01-29T21:03:12.147Z,99.90
2023-01-29T21:08:17.439Z,99.90
2023-01-29T21:13:23.048Z,99.90
2023-01-29T21:18:29.187Z,99.90
2023-01-29T21:23:34.759Z,99.90
2023-01-29T21:28:40.397Z,99.90
2023-01-29T21:33:47.624Z,99.90
2023-01-29T21:38:53.737Z,99.90
2023-01-29T21:44:36.206Z,99.90
2023-01-29T21:49:43.717Z,99.90
2023-01-29T21:54:50.467Z,99.90
2023-01-29T21:59:57.193Z,99.90
2023-01-29T22:05:18.232Z,99.90
2023-01-29T22:10:25.273Z,99.90
2023-01-29T22:15:31.632Z,99.90
2023-01-29T22:20:38.165Z,99.90
2023-01-29T22:25:45.030Z,99.90
2023-01-29T22:30:50.751Z,99.90
2023-01-29T22:35:57.367Z,99.90
2023-01-29T22:41:03.191Z,99.90
2023-01-29T22:46:13.179Z,99.90
2023-01-29T22:51:19.179Z,99.90
2023-01-29T22:56:27.782Z,99.90
2023-01-29T23:01:34.585Z,99.90
2023-01-29T23:06:40.822Z,99.90
2023-01-29T23:11:46.465Z,99.90
2023-01-29T23:16:52.676Z,99.90
2023-01-29T23:21:58.381Z,99.90
2023-01-29T23:27:16.687Z,99.90
2023-01-29T23:32:23.479Z,99.90
2023-01-29T23:37:29.813Z,99.90
2023-01-29T23:42:35.810Z,99.90
2023-01-29T23:47:41.553Z,99.90
2023-01-29T23:52:47.369Z,99.90
2023-01-29T23:57:53.208Z,99.90
